createdAt,value
2018-12-17T00:01:52.383Z,30.23
2018-12-17T00:04:19.809Z,35.43
2018-12-17T00:06:47.338Z,32.35
2018-12-17T00:09:14.804Z,33.60
2018-12-17T00:11:42.307Z,34.35
2018-12-17T00:14:09.760Z,37.10
2018-12-17T00:16:37.201Z,34.33
2018-12-17T00:19:04.646Z,39.10
2018-12-17T00:21:32.104Z,38.80
2018-12-17T00:23:59.574Z,31.42
2018-12-17T00:26:27.049Z,34.33
2018-12-17T00:28:54.482Z,34.50
2018-12-17T00:31:21.943Z,30.52
2018-12-17T00:33:49.492Z,30.10
2018-12-17T00:36:16.942Z,30.45
2018-12-17T00:38:44.398Z,32.85
2018-12-17T00:41:11.861Z,40.40
2018-12-17T00:43:39.466Z,32.98
2018-12-17T00:46:06.914Z,32.05
2018-12-17T00:48:34.427Z,29.63
2018-12-17T00:51:01.870Z,31.75
2018-12-17T00:53:29.343Z,28.83
2018-12-17T00:55:56.790Z,26.50
2018-12-17T00:58:24.246Z,28.30
2018-12-17T01:00:51.711Z,31.73
2018-12-17T01:03:19.265Z,26.82
2018-12-17T01:05:46.704Z,29.20
2018-12-17T01:08:14.300Z,32.53
2018-12-17T01:10:41.743Z,30.08
2018-12-17T01:13:09.186Z,28.70
2018-12-17T01:15:36.647Z,30.85
2018-12-17T01:18:04.091Z,29.77
2018-12-17T01:20:31.549Z,30.23
2018-12-17T01:22:59.015Z,26.30
2018-12-17T01:25:26.499Z,30.20
2018-12-17T01:27:53.943Z,33.78
2018-12-17T01:30:21.459Z,26.25
2018-12-17T01:32:49.062Z,32.00
2018-12-17T01:35:17.211Z,30.90
2018-12-17T01:37:44.646Z,30.25
2018-12-17T01:40:12.263Z,31.85
2018-12-17T01:42:40.118Z,27.42
2018-12-17T01:45:07.537Z,34.58
2018-12-17T01:47:35.857Z,34.80
2018-12-17T01:50:03.928Z,25.92
2018-12-17T01:52:31.392Z,28.30
2018-12-17T01:54:59.651Z,32.33
2018-12-17T01:57:27.811Z,26.30
2018-12-17T01:59:55.270Z,28.15
2018-12-17T02:02:22.718Z,28.75
2018-12-17T02:04:50.262Z,26.07
2018-12-17T02:07:17.720Z,28.98
2018-12-17T02:09:45.176Z,29.40
2018-12-17T02:12:12.625Z,24.63
2018-12-17T02:14:40.230Z,24.92
2018-12-17T02:17:07.686Z,30.45
2018-12-17T02:19:35.140Z,27.32
2018-12-17T02:22:02.679Z,25.57
2018-12-17T02:24:30.115Z,24.10
2018-12-17T02:26:57.559Z,24.50
2018-12-17T02:29:25.020Z,31.05
2018-12-17T02:31:52.471Z,21.85
2018-12-17T02:34:19.981Z,32.80
2018-12-17T02:36:47.429Z,27.67
2018-12-17T02:39:14.909Z,28.07
2018-12-17T02:41:42.447Z,35.17
2018-12-17T02:44:10.101Z,29.00
2018-12-17T02:46:37.546Z,34.58
2018-12-17T02:49:05.006Z,33.48
2018-12-17T02:51:32.623Z,30.05
2018-12-17T02:54:00.349Z,22.07
2018-12-17T02:56:28.419Z,28.70
2018-12-17T02:58:55.870Z,28.92
2018-12-17T03:01:23.324Z,29.60
2018-12-17T03:03:50.757Z,31.60
2018-12-17T03:06:18.220Z,27.93
2018-12-17T03:08:45.654Z,33.25
2018-12-17T03:11:13.102Z,28.32
2018-12-17T03:13:40.542Z,29.20
2018-12-17T03:16:07.997Z,28.02
2018-12-17T03:18:35.447Z,26.02
2018-12-17T03:21:02.932Z,26.77
2018-12-17T03:23:30.373Z,29.00
2018-12-17T03:25:57.811Z,29.32
2018-12-17T03:28:25.272Z,32.58
2018-12-17T03:30:52.735Z,29.25
2018-12-17T03:33:20.258Z,24.05
2018-12-17T03:35:47.709Z,24.67
2018-12-17T03:38:15.157Z,25.95
2018-12-17T03:40:42.586Z,33.35
2018-12-17T03:43:10.047Z,30.60
2018-12-17T03:45:37.569Z,33.92
2018-12-17T03:48:05.028Z,26.75
2018-12-17T03:50:32.468Z,24.55
2018-12-17T03:52:59.963Z,29.70
2018-12-17T03:55:27.423Z,23.32
2018-12-17T03:57:54.880Z,24.10
2018-12-17T04:00:22.328Z,20.37
2018-12-17T04:02:49.763Z,23.57
2018-12-17T04:05:17.491Z,24.00
2018-12-17T04:07:44.946Z,33.75
2018-12-17T04:10:12.502Z,22.48
2018-12-17T04:12:40.023Z,24.85
2018-12-17T04:15:07.621Z,24.67
2018-12-17T04:17:35.048Z,22.60
2018-12-17T04:20:02.570Z,25.97
2018-12-17T04:22:30.013Z,24.55
2018-12-17T04:24:57.478Z,19.75
2018-12-17T04:27:24.931Z,22.32
2018-12-17T04:29:52.374Z,22.52
2018-12-17T04:32:19.862Z,23.98
2018-12-17T04:34:47.306Z,22.60
2018-12-17T04:37:14.781Z,23.02
2018-12-17T04:39:42.315Z,25.57
2018-12-17T04:42:09.758Z,24.85
2018-12-17T04:44:37.204Z,22.65
2018-12-17T04:47:04.664Z,27.30
2018-12-17T04:49:32.093Z,26.17
2018-12-17T04:51:59.570Z,28.75
2018-12-17T04:54:27.368Z,24.52
2018-12-17T04:56:54.838Z,27.65
2018-12-17T04:59:22.455Z,25.52
2018-12-17T05:01:49.897Z,26.17
2018-12-17T05:04:18.621Z,30.60
2018-12-17T05:06:46.152Z,21.95
2018-12-17T05:09:13.604Z,25.32
2018-12-17T05:11:41.055Z,23.18
2018-12-17T05:14:09.151Z,24.35
2018-12-17T05:16:36.596Z,29.42
2018-12-17T05:19:04.036Z,23.00
2018-12-17T05:21:31.577Z,23.60
2018-12-17T05:23:59.123Z,34.25
2018-12-17T05:26:26.576Z,28.75
2018-12-17T05:28:54.282Z,28.30
2018-12-17T05:31:21.741Z,32.50
2018-12-17T05:33:49.183Z,30.52
2018-12-17T05:36:16.643Z,31.82
2018-12-17T05:38:44.686Z,28.50
2018-12-17T05:41:12.127Z,32.78
2018-12-17T05:43:39.587Z,31.77
2018-12-17T05:46:07.025Z,28.67
2018-12-17T05:48:34.506Z,28.85
2018-12-17T05:51:01.944Z,27.95
2018-12-17T05:53:29.416Z,49.65
2018-12-17T05:55:56.865Z,38.08
2018-12-17T05:58:24.428Z,31.82
2018-12-17T06:00:51.863Z,23.67
2018-12-17T06:03:19.306Z,41.53
2018-12-17T06:05:46.826Z,34.25
2018-12-17T06:08:14.258Z,38.95
2018-12-17T06:10:41.717Z,27.27
2018-12-17T06:13:09.230Z,36.23
2018-12-17T06:15:36.682Z,35.80
2018-12-17T06:18:04.189Z,31.60
2018-12-17T06:20:31.647Z,25.32
2018-12-17T06:22:59.118Z,36.60
2018-12-17T06:25:26.563Z,39.38
2018-12-17T06:27:54.015Z,31.75
2018-12-17T06:30:21.508Z,31.70
2018-12-17T06:32:48.958Z,34.90
2018-12-17T06:35:16.400Z,28.98
2018-12-17T06:37:43.888Z,33.25
2018-12-17T06:40:11.335Z,36.48
2018-12-17T06:42:38.789Z,27.90
2018-12-17T06:45:06.310Z,31.73
2018-12-17T06:47:33.933Z,45.23
2018-12-17T06:50:01.381Z,33.38
2018-12-17T06:52:28.831Z,29.48
2018-12-17T06:54:56.300Z,42.00
2018-12-17T06:57:23.741Z,31.48
2018-12-17T06:59:51.192Z,33.83
2018-12-17T07:02:18.846Z,30.65
2018-12-17T07:04:46.339Z,34.83
2018-12-17T07:07:13.780Z,31.20
2018-12-17T07:09:41.239Z,32.63
2018-12-17T07:12:08.797Z,28.92
2018-12-17T07:14:36.665Z,24.67
2018-12-17T07:17:04.302Z,30.00
2018-12-17T07:19:31.864Z,31.42
2018-12-17T07:21:59.306Z,30.80
2018-12-17T07:24:26.748Z,33.42
2018-12-17T07:26:54.203Z,24.57
2018-12-17T07:29:21.634Z,33.50
2018-12-17T07:31:49.092Z,28.45
2018-12-17T07:34:17.222Z,31.42
2018-12-17T07:36:44.807Z,29.23
2018-12-17T07:39:12.333Z,28.30
2018-12-17T07:41:39.882Z,28.95
2018-12-17T07:44:07.421Z,34.70
2018-12-17T07:46:34.870Z,25.92
2018-12-17T07:49:02.733Z,24.52
2018-12-17T07:51:30.947Z,29.80
2018-12-17T07:53:58.389Z,41.75
2018-12-17T07:56:25.831Z,25.75
2018-12-17T07:58:53.284Z,28.77
2018-12-17T08:01:20.791Z,26.12
2018-12-17T08:03:48.244Z,38.08
2018-12-17T08:06:15.700Z,27.50
2018-12-17T08:08:43.152Z,29.07
2018-12-17T08:11:10.602Z,29.75
2018-12-17T08:13:38.062Z,30.32
2018-12-17T08:16:05.499Z,28.67
2018-12-17T08:18:32.943Z,30.02
2018-12-17T08:21:00.395Z,34.70
2018-12-17T08:23:27.835Z,36.83
2018-12-17T08:25:55.309Z,32.70
2018-12-17T08:28:22.794Z,28.87
2018-12-17T08:30:50.272Z,32.15
2018-12-17T08:33:17.732Z,25.25
2018-12-17T08:35:45.163Z,35.20
2018-12-17T08:38:12.766Z,29.82
2018-12-17T08:40:40.275Z,30.97
2018-12-17T08:43:07.730Z,26.25
2018-12-17T08:45:35.600Z,25.82
2018-12-17T08:48:03.126Z,31.70
2018-12-17T08:50:30.571Z,34.33
2018-12-17T08:52:58.399Z,23.83
2018-12-17T08:55:25.840Z,18.82
2018-12-17T08:57:53.278Z,26.07
2018-12-17T09:00:20.845Z,28.55
2018-12-17T09:02:48.296Z,18.45
2018-12-17T09:05:15.776Z,23.85
2018-12-17T09:07:43.215Z,20.77
2018-12-17T09:10:10.722Z,24.82
2018-12-17T09:12:38.179Z,22.85
2018-12-17T09:15:05.964Z,17.37
2018-12-17T09:17:33.431Z,20.32
2018-12-17T09:20:00.861Z,16.90
2018-12-17T09:22:28.373Z,19.75
2018-12-17T09:24:55.823Z,20.75
2018-12-17T09:27:23.333Z,21.87
2018-12-17T09:29:50.893Z,22.30
2018-12-17T09:32:18.327Z,16.82
2018-12-17T09:34:45.769Z,17.23
2018-12-17T09:37:13.211Z,14.33
2018-12-17T09:39:41.444Z,14.68
2018-12-17T09:42:08.898Z,19.60
2018-12-17T09:44:36.351Z,17.45
2018-12-17T09:47:03.916Z,12.88
2018-12-17T09:49:31.366Z,17.50
2018-12-17T09:51:58.810Z,17.00
2018-12-17T09:54:26.277Z,13.95
2018-12-17T09:56:53.719Z,17.30
2018-12-17T09:59:21.168Z,10.80
2018-12-17T10:01:50.279Z,9.70
2018-12-17T10:04:18.034Z,6.70
2018-12-17T10:06:45.518Z,7.45
2018-12-17T10:09:13.015Z,6.00
2018-12-17T10:11:40.443Z,7.08
2018-12-17T10:14:07.891Z,13.28
2018-12-17T10:16:35.340Z,7.67
2018-12-17T10:19:02.780Z,3.40
2018-12-17T10:21:30.331Z,9.03
2018-12-17T10:23:57.763Z,3.42
2018-12-17T10:26:25.273Z,6.85
2018-12-17T10:28:52.723Z,3.55
2018-12-17T10:31:20.179Z,11.48
2018-12-17T10:33:47.638Z,5.92
2018-12-17T10:36:15.141Z,9.80
2018-12-17T10:38:42.719Z,10.95
2018-12-17T10:41:10.154Z,11.22
2018-12-17T10:43:37.600Z,14.80
2018-12-17T10:46:05.052Z,6.58
2018-12-17T10:48:32.488Z,8.40
2018-12-17T10:50:59.937Z,9.28
2018-12-17T10:53:27.407Z,4.58
2018-12-17T10:55:54.875Z,10.32
2018-12-17T10:58:22.857Z,9.73
2018-12-17T11:00:55.874Z,13.13
2018-12-17T11:03:26.126Z,4.37
2018-12-17T11:05:54.755Z,4.70
2018-12-17T11:08:22.206Z,11.48
2018-12-17T11:10:49.960Z,8.43
2018-12-17T11:13:17.460Z,4.35
2018-12-17T11:15:45.419Z,6.62
2018-12-17T11:18:12.862Z,14.07
2018-12-17T11:20:40.307Z,15.60
2018-12-17T11:23:07.851Z,9.60
2018-12-17T11:25:35.314Z,10.82
2018-12-17T11:28:02.753Z,7.87
2018-12-17T11:30:30.209Z,10.82
2018-12-17T11:32:57.633Z,9.38
2018-12-17T11:35:25.738Z,9.18
2018-12-17T11:37:53.253Z,14.18
2018-12-17T11:40:20.695Z,14.35
2018-12-17T11:42:48.152Z,10.98
2018-12-17T11:45:15.591Z,18.27
2018-12-17T11:47:43.039Z,7.03
2018-12-17T11:50:10.539Z,5.47
2018-12-17T11:52:38.000Z,10.90
2018-12-17T11:55:06.406Z,5.70
2018-12-17T11:57:40.418Z,17.10
2018-12-17T12:00:08.648Z,8.00
2018-12-17T12:02:36.118Z,16.15
2018-12-17T12:05:03.681Z,14.78
2018-12-17T12:07:31.131Z,19.87
2018-12-17T12:09:58.578Z,4.67
2018-12-17T12:12:26.028Z,13.20
2018-12-17T12:14:53.470Z,7.30
2018-12-17T12:17:20.907Z,7.33
2018-12-17T12:19:48.342Z,10.73
2018-12-17T12:22:15.798Z,12.63
2018-12-17T12:24:43.274Z,5.00
2018-12-17T12:27:10.736Z,8.70
2018-12-17T12:29:38.171Z,10.80
2018-12-17T12:32:05.802Z,12.13
2018-12-17T12:34:33.231Z,12.30
2018-12-17T12:37:00.710Z,5.22
2018-12-17T12:39:28.159Z,18.52
2018-12-17T12:41:58.016Z,8.13
2018-12-17T12:44:25.483Z,13.40
2018-12-17T12:46:52.918Z,25.70
2018-12-17T12:49:20.365Z,16.50
2018-12-17T12:51:48.324Z,9.15
2018-12-17T12:54:15.949Z,13.03
2018-12-17T12:56:43.376Z,11.68
2018-12-17T12:59:12.038Z,7.03
2018-12-17T13:01:40.207Z,9.43
2018-12-17T13:04:07.668Z,10.28
2018-12-17T13:06:35.102Z,18.52
2018-12-17T13:09:03.953Z,3.98
2018-12-17T13:11:31.387Z,8.40
2018-12-17T13:13:58.827Z,8.53
2018-12-17T13:16:26.282Z,14.13
2018-12-17T13:18:53.718Z,13.28
2018-12-17T13:21:21.166Z,5.97
2018-12-17T13:23:48.622Z,9.90
2018-12-17T13:26:16.050Z,13.13
2018-12-17T13:28:43.511Z,7.05
2018-12-17T13:31:14.587Z,7.17
2018-12-17T13:33:40.377Z,9.28
2018-12-17T13:36:07.835Z,17.20
2018-12-17T13:38:35.292Z,8.38
2018-12-17T13:41:03.387Z,8.10
2018-12-17T13:43:30.864Z,11.83
2018-12-17T13:45:58.300Z,5.35
2018-12-17T13:48:25.856Z,9.38
2018-12-17T13:50:53.312Z,6.47
2018-12-17T13:53:26.356Z,10.15
2018-12-17T13:55:53.790Z,8.90
2018-12-17T13:58:21.302Z,11.28
2018-12-17T14:00:48.747Z,9.70
2018-12-17T14:03:16.408Z,16.82
2018-12-17T14:05:43.843Z,11.38
2018-12-17T14:08:11.295Z,11.83
2018-12-17T14:10:44.310Z,13.98
2018-12-17T14:13:11.760Z,13.65
2018-12-17T14:15:44.823Z,5.78
2018-12-17T14:18:18.282Z,12.73
2018-12-17T14:23:53.218Z,12.40
2018-12-17T14:26:20.653Z,11.12
2018-12-17T14:28:48.103Z,10.30
2018-12-17T14:31:15.540Z,10.32
2018-12-17T14:33:43.046Z,8.10
2018-12-17T14:36:10.491Z,11.83
2018-12-17T14:38:38.018Z,9.23
2018-12-17T14:41:05.518Z,7.92
2018-12-17T14:43:32.976Z,14.78
2018-12-17T14:46:00.417Z,14.53
2018-12-17T14:48:27.875Z,22.02
2018-12-17T14:50:55.310Z,7.90
2018-12-17T14:53:22.763Z,21.35
2018-12-17T14:55:50.275Z,21.87
2018-12-17T14:58:17.719Z,12.73
2018-12-17T15:00:45.858Z,15.93
2018-12-17T15:03:13.309Z,21.05
2018-12-17T15:05:40.871Z,9.80
2018-12-17T15:08:08.314Z,9.60
2018-12-17T15:10:35.758Z,14.35
2018-12-17T15:13:03.269Z,12.25
2018-12-17T15:15:30.744Z,11.63
2018-12-17T15:17:58.570Z,15.25
2018-12-17T15:20:26.090Z,8.80
2018-12-17T15:22:53.575Z,9.90
2018-12-17T15:25:21.120Z,30.48
2018-12-17T15:27:48.603Z,11.53
2018-12-17T15:30:16.121Z,13.13
2018-12-17T15:32:43.558Z,8.30
2018-12-17T15:35:11.012Z,15.03
2018-12-17T15:37:38.719Z,19.20
2018-12-17T15:40:06.284Z,24.40
2018-12-17T15:42:40.582Z,16.42
2018-12-17T15:45:04.265Z,14.90
2018-12-17T15:47:31.700Z,21.05
2018-12-17T15:49:59.206Z,7.40
2018-12-17T15:52:26.627Z,10.10
2018-12-17T15:54:54.071Z,27.22
2018-12-17T15:57:21.532Z,12.05
2018-12-17T15:59:48.970Z,20.30
2018-12-17T16:02:16.414Z,8.40
2018-12-17T16:04:43.867Z,12.20
2018-12-17T16:07:11.302Z,17.15
2018-12-17T16:09:38.748Z,7.97
2018-12-17T16:12:06.199Z,8.30
2018-12-17T16:14:33.636Z,16.48
2018-12-17T16:17:01.096Z,9.13
2018-12-17T16:19:28.626Z,13.78
2018-12-17T16:21:56.093Z,11.53
2018-12-17T16:24:23.543Z,18.45
2018-12-17T16:26:50.991Z,5.87
2018-12-17T16:29:18.424Z,8.18
2018-12-17T16:31:46.702Z,11.85
2018-12-17T16:34:14.350Z,19.92
2018-12-17T16:36:41.946Z,13.13
2018-12-17T16:39:09.422Z,18.55
2018-12-17T16:41:36.889Z,13.13
2018-12-17T16:44:04.402Z,9.78
2018-12-17T16:46:31.843Z,8.28
2018-12-17T16:48:59.281Z,8.75
2018-12-17T16:51:26.727Z,11.75
2018-12-17T16:53:54.398Z,21.10
2018-12-17T16:56:21.892Z,15.83
2018-12-17T16:58:49.418Z,13.75
2018-12-17T17:01:16.858Z,16.37
2018-12-17T17:03:44.325Z,10.55
2018-12-17T17:06:12.087Z,17.35
2018-12-17T17:08:39.553Z,18.23
2018-12-17T17:11:07.040Z,18.45
2018-12-17T17:13:34.482Z,19.73
2018-12-17T17:16:02.050Z,35.65
2018-12-17T17:18:29.524Z,24.18
2018-12-17T17:20:56.967Z,11.78
2018-12-17T17:23:24.423Z,15.63
2018-12-17T17:25:51.856Z,20.37
2018-12-17T17:28:19.302Z,24.52
2018-12-17T17:30:46.746Z,14.18
2018-12-17T17:33:14.618Z,11.12
2018-12-17T17:35:42.067Z,17.27
2018-12-17T17:38:09.512Z,12.47
2018-12-17T17:40:36.968Z,14.98
2018-12-17T17:43:04.418Z,14.00
2018-12-17T17:45:31.888Z,25.92
2018-12-17T17:47:59.331Z,14.07
2018-12-17T17:50:26.773Z,23.35
2018-12-17T17:52:54.215Z,18.45
2018-12-17T17:55:21.708Z,13.18
2018-12-17T17:57:49.137Z,21.87
2018-12-17T18:00:16.595Z,16.10
2018-12-17T18:02:44.046Z,15.05
2018-12-17T18:05:11.507Z,20.10
2018-12-17T18:07:38.951Z,13.48
2018-12-17T18:10:09.278Z,11.48
2018-12-17T18:12:36.764Z,12.13
2018-12-17T18:15:04.631Z,18.17
2018-12-17T18:17:32.260Z,16.42
2018-12-17T18:19:59.976Z,18.60
2018-12-17T18:22:27.404Z,27.00
2018-12-17T18:24:54.873Z,17.37
2018-12-17T18:27:22.371Z,14.05
2018-12-17T18:29:49.846Z,14.85
2018-12-17T18:32:17.306Z,18.07
2018-12-17T18:34:44.809Z,21.68
2018-12-17T18:37:12.255Z,19.45
2018-12-17T18:39:39.690Z,12.07
2018-12-17T18:42:07.187Z,18.25
2018-12-17T18:44:34.757Z,13.78
2018-12-17T18:47:02.251Z,34.38
2018-12-17T18:49:29.840Z,10.38
2018-12-17T18:51:57.299Z,17.50
2018-12-17T18:54:24.752Z,14.65
2018-12-17T18:56:52.211Z,10.93
2018-12-17T18:59:20.885Z,10.58
2018-12-17T19:01:48.351Z,20.27
2018-12-17T19:04:17.403Z,24.52
2018-12-17T19:06:44.853Z,25.10
2018-12-17T19:09:12.563Z,23.70
2018-12-17T19:11:40.895Z,19.37
2018-12-17T19:14:08.345Z,17.02
2018-12-17T19:16:35.785Z,11.65
2018-12-17T19:19:03.298Z,19.55
2018-12-17T19:21:30.755Z,16.77
2018-12-17T19:23:58.229Z,18.37
2018-12-17T19:26:25.752Z,16.93
2018-12-17T19:28:53.209Z,13.38
2018-12-17T19:31:20.706Z,16.25
2018-12-17T19:33:48.159Z,17.00
2018-12-17T19:36:15.598Z,17.05
2018-12-17T19:38:43.052Z,24.07
2018-12-17T19:41:10.497Z,11.28
2018-12-17T19:43:37.955Z,14.75
2018-12-17T19:46:05.666Z,18.15
2018-12-17T19:48:33.175Z,16.48
2018-12-17T19:51:01.460Z,15.78
2018-12-17T19:53:28.907Z,9.98
2018-12-17T19:55:56.354Z,19.35
2018-12-17T19:58:24.175Z,17.90
2018-12-17T20:00:54.732Z,17.00
2018-12-17T20:03:22.382Z,18.00
2018-12-17T20:05:50.795Z,12.85
2018-12-17T20:08:18.255Z,18.60
2018-12-17T20:10:48.507Z,21.05
2018-12-17T20:13:16.475Z,17.70
2018-12-17T20:15:45.649Z,17.12
2018-12-17T20:18:14.797Z,13.55
2018-12-17T20:20:42.242Z,15.85
2018-12-17T20:23:09.944Z,16.65
2018-12-17T20:25:37.414Z,19.07
2018-12-17T20:28:05.521Z,15.60
2018-12-17T20:30:33.068Z,21.60
2018-12-17T20:33:00.709Z,19.25
2018-12-17T20:35:30.071Z,24.30
2018-12-17T20:37:57.551Z,9.43
2018-12-17T20:40:24.994Z,17.62
2018-12-17T20:42:52.579Z,11.83
2018-12-17T20:45:20.058Z,13.78
2018-12-17T20:47:47.783Z,16.60
2018-12-17T20:50:15.320Z,18.82
2018-12-17T20:52:42.849Z,11.55
2018-12-17T20:55:10.603Z,20.90
2018-12-17T20:57:38.070Z,18.12
2018-12-17T21:00:06.860Z,15.72
2018-12-17T21:02:34.315Z,11.78
2018-12-17T21:05:01.825Z,23.90
2018-12-17T21:07:29.273Z,14.10
2018-12-17T21:09:56.747Z,22.13
2018-12-17T21:12:24.247Z,13.70
2018-12-17T21:14:51.711Z,18.12
2018-12-17T21:17:20.065Z,18.07
2018-12-17T21:19:47.500Z,17.77
2018-12-17T21:22:15.002Z,12.85
2018-12-17T21:24:42.507Z,14.53
2018-12-17T21:27:10.303Z,17.32
